createdAt,value
2018-08-10T00:02:20.741Z,65.70
2018-08-10T00:05:17.783Z,65.00
2018-08-10T00:07:45.747Z,64.50
2018-08-10T00:10:14.461Z,64.70
2018-08-10T00:12:42.450Z,64.90
2018-08-10T00:15:11.602Z,66.30
2018-08-10T00:17:39.894Z,66.00
2018-08-10T00:20:10.939Z,65.80
2018-08-10T00:22:38.905Z,66.30
2018-08-10T00:25:09.532Z,66.60
2018-08-10T00:27:37.532Z,66.90
2018-08-10T00:30:08.825Z,67.30
2018-08-10T00:32:36.787Z,67.20
2018-08-10T00:35:05.826Z,66.70
2018-08-10T00:37:33.804Z,66.50
2018-08-10T00:40:01.762Z,66.70
2018-08-10T00:42:30.035Z,67.10
2018-08-10T00:44:57.999Z,67.60
2018-08-10T00:47:25.986Z,67.80
2018-08-10T00:49:54.037Z,67.50
2018-08-10T00:52:21.980Z,67.80
2018-08-10T00:54:49.974Z,67.40
2018-08-10T00:57:17.990Z,67.20
2018-08-10T00:59:45.952Z,67.10
2018-08-10T01:02:13.945Z,66.60
2018-08-10T01:04:41.924Z,66.40
2018-08-10T01:07:09.896Z,65.70
2018-08-10T01:09:37.839Z,65.90
2018-08-10T01:12:09.035Z,66.30
2018-08-10T01:14:37.056Z,66.30
2018-08-10T01:17:05.129Z,66.50
2018-08-10T01:19:33.099Z,66.50
2018-08-10T01:22:01.060Z,66.40
2018-08-10T01:24:29.016Z,66.70
2018-08-10T01:26:56.984Z,66.70
2018-08-10T01:29:25.604Z,67.20
2018-08-10T01:31:53.572Z,67.10
2018-08-10T01:34:21.535Z,66.60
2018-08-10T01:36:49.474Z,66.10
2018-08-10T01:39:17.459Z,65.90
2018-08-10T01:41:45.408Z,65.60
2018-08-10T01:44:13.611Z,66.50
2018-08-10T01:46:41.580Z,65.30
2018-08-10T01:49:09.561Z,65.90
2018-08-10T01:51:37.535Z,66.00
2018-08-10T01:54:05.487Z,65.30
2018-08-10T01:56:33.470Z,65.50
2018-08-10T01:59:01.443Z,65.20
2018-08-10T02:01:29.428Z,65.60
2018-08-10T02:03:57.382Z,65.10
2018-08-10T02:06:25.335Z,65.50
2018-08-10T02:08:56.247Z,64.20
2018-08-10T02:11:24.234Z,63.90
2018-08-10T02:13:52.234Z,64.20
2018-08-10T02:16:20.222Z,64.60
2018-08-10T02:18:48.287Z,64.40
2018-08-10T02:21:16.315Z,64.70
2018-08-10T02:23:44.269Z,64.50
2018-08-10T02:26:12.548Z,64.20
2018-08-10T02:28:40.519Z,64.70
2018-08-10T02:31:08.547Z,64.60
2018-08-10T02:33:36.528Z,64.50
2018-08-10T02:36:04.489Z,64.30
2018-08-10T02:38:32.503Z,64.00
2018-08-10T02:41:00.469Z,64.20
2018-08-10T02:43:28.428Z,64.30
2018-08-10T02:45:56.387Z,63.60
2018-08-10T02:48:24.363Z,63.40
2018-08-10T02:50:52.365Z,63.40
2018-08-10T02:53:20.319Z,63.20
2018-08-10T02:55:48.274Z,63.10
2018-08-10T02:58:16.267Z,63.30
2018-08-10T03:00:44.221Z,63.50
2018-08-10T03:03:12.510Z,63.40
2018-08-10T03:05:40.472Z,63.40
2018-08-10T03:08:08.436Z,63.40
2018-08-10T03:10:36.403Z,63.10
2018-08-10T03:13:04.363Z,62.10
2018-08-10T03:15:32.656Z,62.10
2018-08-10T03:18:00.609Z,62.50
2018-08-10T03:20:28.555Z,62.00
2018-08-10T03:22:56.523Z,61.80
2018-08-10T03:25:24.466Z,62.00
2018-08-10T03:27:52.460Z,62.30
2018-08-10T03:30:20.574Z,62.10
2018-08-10T03:32:48.526Z,62.10
2018-08-10T03:35:16.463Z,62.30
2018-08-10T03:37:44.428Z,62.00
2018-08-10T03:40:14.182Z,61.60
2018-08-10T03:42:42.180Z,60.90
2018-08-10T03:45:10.448Z,60.60
2018-08-10T03:47:39.029Z,60.90
2018-08-10T03:50:08.517Z,60.80
2018-08-10T03:52:36.463Z,61.00
2018-08-10T03:55:05.207Z,60.20
2018-08-10T03:57:33.135Z,60.10
2018-08-10T04:00:01.087Z,60.20
2018-08-10T04:02:29.066Z,59.70
2018-08-10T04:04:57.068Z,60.20
2018-08-10T04:07:25.033Z,60.00
2018-08-10T04:09:52.992Z,60.10
2018-08-10T04:12:20.945Z,60.30
2018-08-10T04:14:48.911Z,60.60
2018-08-10T04:17:21.524Z,60.60
2018-08-10T04:19:49.484Z,61.00
2018-08-10T04:22:17.463Z,61.00
2018-08-10T04:24:45.414Z,61.00
2018-08-10T04:27:13.374Z,60.70
2018-08-10T04:29:41.708Z,60.40
2018-08-10T04:32:09.751Z,61.30
2018-08-10T04:34:37.715Z,61.80
2018-08-10T04:37:05.885Z,62.10
2018-08-10T04:39:33.856Z,62.50
2018-08-10T04:42:01.827Z,62.60
2018-08-10T04:44:29.788Z,62.70
2018-08-10T04:46:57.821Z,62.50
2018-08-10T04:49:26.036Z,62.60
2018-08-10T04:51:54.042Z,62.50
2018-08-10T04:54:22.132Z,62.70
2018-08-10T04:56:50.121Z,62.70
2018-08-10T04:59:18.163Z,63.20
2018-08-10T05:01:46.146Z,63.10
2018-08-10T05:04:14.268Z,63.40
2018-08-10T05:06:42.240Z,63.30
2018-08-10T05:09:12.172Z,62.50
2018-08-10T05:11:40.143Z,63.90
2018-08-10T05:14:08.435Z,63.10
2018-08-10T05:16:36.493Z,63.30
2018-08-10T05:19:04.477Z,62.40
2018-08-10T05:21:32.464Z,62.30
2018-08-10T05:24:00.439Z,62.40
2018-08-10T05:26:28.391Z,62.80
2018-08-10T05:28:56.384Z,62.60
2018-08-10T05:31:24.358Z,62.70
2018-08-10T05:33:52.347Z,62.30
2018-08-10T05:36:20.332Z,62.00
2018-08-10T05:38:48.387Z,62.50
2018-08-10T05:41:16.374Z,60.90
2018-08-10T05:43:44.346Z,62.00
2018-08-10T05:46:12.394Z,59.60
2018-08-10T05:48:41.511Z,59.60
2018-08-10T05:51:11.753Z,60.30
2018-08-10T05:53:40.029Z,59.30
2018-08-10T05:56:07.985Z,58.90
2018-08-10T05:58:36.011Z,59.00
2018-08-10T06:01:04.221Z,58.60
2018-08-10T06:03:32.222Z,58.00
2018-08-10T06:06:00.135Z,57.80
2018-08-10T06:08:28.115Z,57.90
2018-08-10T06:10:56.077Z,57.70
2018-08-10T06:13:24.022Z,57.90
2018-08-10T06:15:51.998Z,57.70
2018-08-10T06:18:19.955Z,57.70
2018-08-10T06:20:47.936Z,56.10
2018-08-10T06:23:15.920Z,56.20
2018-08-10T06:25:43.884Z,56.00
2018-08-10T06:28:11.960Z,55.70
2018-08-10T06:30:39.859Z,55.50
2018-08-10T06:33:07.834Z,55.60
2018-08-10T06:35:35.816Z,55.10
2018-08-10T06:38:03.760Z,55.10
2018-08-10T06:40:31.819Z,55.40
2018-08-10T06:42:59.758Z,56.20
2018-08-10T06:45:28.428Z,55.90
2018-08-10T06:47:56.453Z,55.10
2018-08-10T06:50:24.419Z,55.30
2018-08-10T06:52:52.476Z,55.60
2018-08-10T06:55:20.436Z,56.10
2018-08-10T06:57:48.414Z,55.80
2018-08-10T07:00:16.396Z,55.60
2018-08-10T07:02:44.334Z,55.60
2018-08-10T07:05:12.332Z,56.00
2018-08-10T07:07:40.419Z,55.80
2018-08-10T07:10:08.628Z,56.00
2018-08-10T07:12:36.573Z,55.70
2018-08-10T07:15:04.616Z,56.10
2018-08-10T07:17:32.562Z,56.30
2018-08-10T07:20:00.555Z,56.30
2018-08-10T07:22:28.509Z,56.50
2018-08-10T07:24:56.496Z,56.40
2018-08-10T07:27:24.486Z,56.60
2018-08-10T07:29:52.489Z,56.70
2018-08-10T07:32:20.452Z,56.60
2018-08-10T07:34:48.414Z,56.90
2018-08-10T07:37:16.399Z,57.50
2018-08-10T07:39:44.494Z,57.50
2018-08-10T07:42:12.580Z,57.20
2018-08-10T07:44:40.557Z,56.90
2018-08-10T07:47:08.556Z,56.50
2018-08-10T07:49:36.515Z,56.20
2018-08-10T07:52:04.507Z,55.70
2018-08-10T07:54:32.447Z,55.60
2018-08-10T07:57:00.410Z,55.50
2018-08-10T07:59:28.367Z,55.20
2018-08-10T08:01:56.356Z,54.80
2018-08-10T08:04:24.318Z,54.70
2018-08-10T08:06:52.435Z,54.80
2018-08-10T08:09:20.333Z,54.80
2018-08-10T08:11:48.337Z,54.90
2018-08-10T08:14:16.291Z,54.90
2018-08-10T08:16:44.295Z,54.70
2018-08-10T08:19:12.306Z,54.20
2018-08-10T08:21:47.520Z,53.70
2018-08-10T08:24:15.507Z,53.30
2018-08-10T08:26:43.513Z,53.00
2018-08-10T08:29:11.510Z,53.50
2018-08-10T08:31:39.471Z,53.00
2018-08-10T08:34:07.988Z,52.90
2018-08-10T08:36:36.342Z,52.50
2018-08-10T08:41:12.754Z,52.50
2018-08-10T08:46:04.191Z,52.00
2018-08-10T08:48:33.783Z,52.50
2018-08-10T08:51:03.602Z,52.10
2018-08-10T08:53:31.603Z,51.60
2018-08-10T08:56:02.006Z,51.40
2018-08-10T08:58:30.488Z,51.70
2018-08-10T09:00:58.450Z,51.40
2018-08-10T09:03:38.512Z,51.60
2018-08-10T09:06:06.955Z,51.30
2018-08-10T09:08:35.138Z,51.50
2018-08-10T09:11:04.458Z,51.10
2018-08-10T09:13:44.784Z,51.00
2018-08-10T09:16:12.864Z,50.90
2018-08-10T09:18:40.865Z,51.20
2018-08-10T09:21:08.875Z,51.40
2018-08-10T09:23:36.845Z,51.50
2018-08-10T09:26:04.839Z,51.20
2018-08-10T09:28:32.839Z,51.30
2018-08-10T09:31:04.037Z,51.10
2018-08-10T09:33:32.061Z,51.00
2018-08-10T09:36:00.055Z,50.90
2018-08-10T09:38:28.071Z,50.90
2018-08-10T09:40:55.978Z,51.20
2018-08-10T09:43:23.957Z,51.00
2018-08-10T09:45:51.959Z,50.90
2018-08-10T09:48:20.047Z,50.40
2018-08-10T09:50:48.011Z,50.50
2018-08-10T09:53:16.118Z,50.60
2018-08-10T09:55:45.083Z,50.20
2018-08-10T09:58:18.844Z,50.00
2018-08-10T10:00:52.513Z,50.20
2018-08-10T10:03:21.910Z,50.10
2018-08-10T10:05:50.978Z,50.10
2018-08-10T10:08:20.316Z,49.60
2018-08-10T10:10:48.313Z,49.00
2018-08-10T10:13:16.540Z,49.00
2018-08-10T10:15:44.636Z,48.80
2018-08-10T10:18:13.675Z,48.60
2018-08-10T10:20:42.483Z,48.80
2018-08-10T10:23:10.452Z,48.60
2018-08-10T10:25:38.578Z,48.50
2018-08-10T10:28:07.075Z,48.70
2018-08-10T10:30:35.132Z,48.70
2018-08-10T10:33:03.140Z,48.60
2018-08-10T10:35:31.278Z,48.70
2018-08-10T10:37:59.368Z,48.60
2018-08-10T10:40:27.340Z,48.50
2018-08-10T10:42:55.347Z,48.60
2018-08-10T10:45:23.304Z,48.10
2018-08-10T10:47:51.330Z,48.60
2018-08-10T10:50:19.668Z,48.10
2018-08-10T10:52:47.716Z,48.50
2018-08-10T10:55:15.890Z,48.40
2018-08-10T10:57:44.201Z,48.40
2018-08-10T11:00:19.163Z,47.90
2018-08-10T11:02:47.628Z,48.00
2018-08-10T11:05:15.580Z,47.10
2018-08-10T11:07:43.648Z,46.90
2018-08-10T11:10:12.976Z,46.70
2018-08-10T11:12:40.999Z,47.00
2018-08-10T11:15:09.916Z,47.00
2018-08-10T11:17:41.876Z,46.90
2018-08-10T11:20:11.003Z,47.20
2018-08-10T11:22:39.899Z,47.30
2018-08-10T11:25:08.834Z,47.30
2018-08-10T11:27:36.796Z,46.90
2018-08-10T11:30:06.271Z,46.90
2018-08-10T11:32:35.187Z,46.50
2018-08-10T11:35:03.199Z,47.10
2018-08-10T11:37:31.187Z,46.80
2018-08-10T11:39:59.156Z,46.90
2018-08-10T11:42:27.165Z,46.80
2018-08-10T11:44:55.210Z,46.80
2018-08-10T11:47:23.176Z,46.40
2018-08-10T11:49:51.165Z,46.00
2018-08-10T11:52:19.207Z,45.90
2018-08-10T11:54:47.229Z,45.50
2018-08-10T11:57:15.297Z,45.60
2018-08-10T11:59:43.272Z,45.60
2018-08-10T12:02:11.256Z,45.10
2018-08-10T12:04:39.311Z,44.90
2018-08-10T12:07:07.288Z,45.00
2018-08-10T12:09:35.243Z,45.30
2018-08-10T12:12:03.249Z,45.10
2018-08-10T12:14:31.573Z,45.30
2018-08-10T12:16:59.596Z,45.40
2018-08-10T12:19:27.652Z,43.70
2018-08-10T12:21:55.619Z,42.50
2018-08-10T12:24:23.690Z,42.60
2018-08-10T12:26:52.918Z,43.50
2018-08-10T12:29:21.609Z,44.70
2018-08-10T12:31:49.728Z,45.30
2018-08-10T12:34:18.083Z,45.30
2018-08-10T12:36:46.225Z,45.60
2018-08-10T12:39:14.584Z,44.20
2018-08-10T12:41:42.639Z,44.10
2018-08-10T12:44:11.106Z,43.70
2018-08-10T12:46:39.156Z,43.60
2018-08-10T12:49:07.198Z,42.90
2018-08-10T12:51:35.273Z,41.50
2018-08-10T12:54:03.211Z,42.20
2018-08-10T12:56:31.210Z,42.80
2018-08-10T12:58:59.167Z,41.70
2018-08-10T13:01:27.164Z,41.40
2018-08-10T13:03:55.131Z,41.70
2018-08-10T13:06:23.193Z,41.70
2018-08-10T13:08:51.199Z,41.70
2018-08-10T13:11:19.144Z,41.00
2018-08-10T13:13:47.128Z,41.40
2018-08-10T13:16:15.128Z,41.60
2018-08-10T13:18:43.170Z,41.60
2018-08-10T13:21:11.121Z,41.10
2018-08-10T13:23:39.105Z,41.10
2018-08-10T13:26:07.498Z,41.30
2018-08-10T13:28:35.447Z,40.80
2018-08-10T13:31:03.642Z,40.90
2018-08-10T13:33:31.624Z,40.40
2018-08-10T13:35:59.588Z,39.80
2018-08-10T13:38:27.545Z,40.10
2018-08-10T13:40:55.655Z,40.50
2018-08-10T13:43:23.600Z,40.90
2018-08-10T13:45:51.607Z,40.60
2018-08-10T13:48:19.622Z,40.60
2018-08-10T13:50:48.083Z,40.10
2018-08-10T13:53:16.373Z,40.40
2018-08-10T13:55:44.538Z,40.10
2018-08-10T13:58:12.803Z,39.60
2018-08-10T14:00:40.924Z,40.00
2018-08-10T14:03:09.054Z,40.00
2018-08-10T14:05:40.617Z,40.00
2018-08-10T14:08:08.611Z,40.10
2018-08-10T14:10:36.568Z,40.10
2018-08-10T14:13:04.597Z,38.50
2018-08-10T14:15:32.582Z,38.40
2018-08-10T14:18:00.639Z,38.40
2018-08-10T14:20:28.594Z,38.50
2018-08-10T14:22:56.575Z,39.30
2018-08-10T14:25:24.587Z,40.10
2018-08-10T14:27:52.721Z,40.20
2018-08-10T14:30:20.691Z,40.40
2018-08-10T14:32:48.722Z,41.40
2018-08-10T14:35:17.277Z,40.40
2018-08-10T14:37:45.281Z,40.00
2018-08-10T14:40:13.900Z,39.80
2018-08-10T14:42:41.905Z,39.60
2018-08-10T14:45:12.774Z,39.80
2018-08-10T14:47:40.841Z,39.00
2018-08-10T14:50:10.972Z,39.50
2018-08-10T14:52:38.972Z,39.80
2018-08-10T14:55:09.109Z,40.00
2018-08-10T14:57:37.298Z,39.80
2018-08-10T15:00:08.603Z,39.40
2018-08-10T15:02:36.592Z,39.80
2018-08-10T15:05:05.130Z,39.30
2018-08-10T15:07:33.111Z,39.70
2018-08-10T15:10:01.133Z,39.40
2018-08-10T15:12:29.274Z,39.00
2018-08-10T15:14:57.104Z,39.60
2018-08-10T15:17:25.073Z,39.70
2018-08-10T15:19:53.176Z,39.40
2018-08-10T15:22:21.110Z,39.40
2018-08-10T15:24:49.087Z,39.60
2018-08-10T15:27:17.084Z,39.80
2018-08-10T15:29:45.449Z,39.70
2018-08-10T15:32:13.486Z,39.60
2018-08-10T15:34:41.544Z,39.00
2018-08-10T15:37:09.555Z,39.00
2018-08-10T15:39:37.528Z,38.90
2018-08-10T15:42:05.593Z,39.00
2018-08-10T15:44:33.571Z,38.50
2018-08-10T15:47:01.520Z,38.00
2018-08-10T15:49:29.510Z,38.10
2018-08-10T15:51:57.786Z,37.50
2018-08-10T15:54:25.784Z,37.30
2018-08-10T15:56:53.830Z,37.80
2018-08-10T15:59:21.900Z,39.10
2018-08-10T16:01:49.934Z,37.60
2018-08-10T16:04:18.262Z,37.80
2018-08-10T16:06:46.224Z,37.70
2018-08-10T16:09:14.200Z,38.00
2018-08-10T16:11:42.172Z,37.60
2018-08-10T16:14:11.054Z,37.60
2018-08-10T16:16:39.020Z,37.10
2018-08-10T16:19:07.151Z,37.50
2018-08-10T16:21:35.225Z,37.30
2018-08-10T16:24:03.222Z,37.70
2018-08-10T16:26:31.198Z,37.80
2018-08-10T16:28:59.188Z,37.90
2018-08-10T16:31:27.173Z,37.90
2018-08-10T16:33:55.184Z,37.30
2018-08-10T16:36:23.141Z,37.10
2018-08-10T16:38:51.114Z,36.60
2018-08-10T16:41:19.091Z,36.70
2018-08-10T16:43:47.287Z,36.60
2018-08-10T16:46:15.263Z,35.30
2018-08-10T16:48:43.240Z,35.70
2018-08-10T16:51:11.589Z,35.00
2018-08-10T16:53:39.574Z,35.30
2018-08-10T16:56:07.557Z,34.30
2018-08-10T16:58:35.523Z,34.70
2018-08-10T17:01:03.695Z,34.80
2018-08-10T17:03:31.679Z,35.10
2018-08-10T17:06:00.585Z,35.10
2018-08-10T17:08:31.625Z,35.10
2018-08-10T17:10:59.616Z,34.90
2018-08-10T17:13:27.947Z,35.20
2018-08-10T17:15:55.952Z,35.00
2018-08-10T17:18:23.911Z,34.50
2018-08-10T17:20:51.884Z,34.50
2018-08-10T17:23:19.856Z,34.20
2018-08-10T17:25:48.222Z,35.00
2018-08-10T17:28:16.181Z,35.40
2018-08-10T17:30:44.148Z,35.90
2018-08-10T17:33:12.173Z,34.70
2018-08-10T17:35:40.156Z,34.70
2018-08-10T17:38:08.118Z,34.30
2018-08-10T17:40:36.105Z,33.50
2018-08-10T17:43:04.127Z,33.40
2018-08-10T17:45:32.101Z,32.50
2018-08-10T17:48:00.264Z,32.20
2018-08-10T17:50:28.240Z,32.60
2018-08-10T17:52:56.264Z,33.40
2018-08-10T17:55:24.484Z,33.90
2018-08-10T17:57:52.466Z,35.10
2018-08-10T18:00:21.816Z,34.40
2018-08-10T18:02:50.536Z,34.80
2018-08-10T18:05:18.909Z,34.40
2018-08-10T18:07:46.946Z,34.20
2018-08-10T18:10:15.582Z,34.70
2018-08-10T18:12:44.355Z,34.70
2018-08-10T18:15:13.738Z,35.30
2018-08-10T18:17:42.252Z,35.60
2018-08-10T18:20:14.584Z,35.60
2018-08-10T18:22:43.708Z,35.70
2018-08-10T18:25:12.779Z,35.90
2018-08-10T18:27:41.512Z,36.00
2018-08-10T18:30:16.346Z,36.00
2018-08-10T18:32:44.601Z,36.40
2018-08-10T18:35:12.562Z,36.50
2018-08-10T18:37:42.132Z,36.60
2018-08-10T18:40:11.876Z,36.70
2018-08-10T18:42:40.662Z,37.00
2018-08-10T18:45:09.524Z,37.10
2018-08-10T18:47:38.208Z,37.30
2018-08-10T18:50:06.541Z,37.50
2018-08-10T18:52:34.909Z,37.70
2018-08-10T18:55:02.904Z,38.10
2018-08-10T18:57:30.858Z,38.60
2018-08-10T18:59:58.905Z,39.70
2018-08-10T19:02:26.934Z,39.30
2018-08-10T19:04:54.866Z,40.10
2018-08-10T19:07:22.809Z,40.40
2018-08-10T19:09:50.806Z,40.70
2018-08-10T19:12:18.774Z,41.00
2018-08-10T19:14:46.731Z,41.20
2018-08-10T19:17:14.704Z,41.30
2018-08-10T19:19:42.647Z,41.50
2018-08-10T19:22:10.625Z,41.80
2018-08-10T19:24:38.572Z,41.90
2018-08-10T19:27:06.618Z,42.10
2018-08-10T19:29:34.544Z,42.20
2018-08-10T19:32:02.504Z,42.40
2018-08-10T19:34:30.583Z,42.60
2018-08-10T19:36:58.538Z,43.10
2018-08-10T19:39:26.483Z,43.30
2018-08-10T19:41:54.452Z,43.40
2018-08-10T19:44:22.479Z,43.40
2018-08-10T19:46:50.553Z,43.60
2018-08-10T19:49:18.445Z,43.70
2018-08-10T19:51:46.627Z,44.00
2018-08-10T19:54:14.763Z,44.20
2018-08-10T19:56:42.907Z,44.30
2018-08-10T19:59:11.091Z,44.30
2018-08-10T20:01:39.073Z,44.40
2018-08-10T20:04:07.049Z,44.50
2018-08-10T20:06:35.187Z,44.80
2018-08-10T20:09:04.718Z,44.80
2018-08-10T20:11:32.673Z,44.60
2018-08-10T20:14:00.689Z,44.60
2018-08-10T20:16:28.667Z,44.70
2018-08-10T20:18:56.612Z,44.80
2018-08-10T20:21:24.586Z,44.90
2018-08-10T20:23:52.857Z,45.00
2018-08-10T20:26:21.709Z,45.20
2018-08-10T20:28:49.680Z,45.20
2018-08-10T20:31:17.983Z,45.10
2018-08-10T20:33:45.950Z,45.10
2018-08-10T20:36:13.910Z,45.10
2018-08-10T20:38:41.907Z,45.10
2018-08-10T20:41:09.907Z,44.80
2018-08-10T20:43:37.878Z,45.00
2018-08-10T20:46:05.844Z,45.40
2018-08-10T20:48:33.807Z,44.80
2018-08-10T20:51:01.853Z,45.00
2018-08-10T20:53:29.824Z,45.20
2018-08-10T20:55:57.998Z,45.40
2018-08-10T20:58:25.956Z,45.60
2018-08-10T21:00:53.916Z,45.90
2018-08-10T21:03:22.311Z,46.20
2018-08-10T21:05:50.267Z,46.30
2018-08-10T21:08:18.275Z,46.60
2018-08-10T21:10:46.537Z,46.90
2018-08-10T21:13:14.494Z,47.20
2018-08-10T21:15:42.478Z,47.30
2018-08-10T21:18:10.438Z,47.30
2018-08-10T21:20:38.385Z,47.30
2018-08-10T21:23:06.398Z,47.20
2018-08-10T21:25:34.358Z,47.00
2018-08-10T21:28:02.326Z,46.80
2018-08-10T21:30:30.438Z,46.90
2018-08-10T21:32:58.376Z,46.70
2018-08-10T21:35:26.323Z,46.70
2018-08-10T21:37:54.319Z,46.70
2018-08-10T21:40:22.270Z,46.70
2018-08-10T21:42:50.229Z,46.80
2018-08-10T21:45:18.259Z,46.60
2018-08-10T21:47:46.247Z,46.60
2018-08-10T21:50:14.883Z,46.70
2018-08-10T21:52:43.909Z,47.30
2018-08-10T21:55:12.212Z,46.70
2018-08-10T21:57:40.411Z,46.70
2018-08-10T22:00:15.889Z,46.70
2018-08-10T22:02:43.844Z,46.80
2018-08-10T22:05:11.798Z,47.00
2018-08-10T22:07:39.757Z,47.00
2018-08-10T22:10:07.723Z,47.10
2018-08-10T22:12:39.939Z,47.50
2018-08-10T22:15:13.346Z,47.80
2018-08-10T22:17:46.908Z,47.80
2018-08-10T22:20:15.082Z,47.90
2018-08-10T22:22:42.996Z,47.80
2018-08-10T22:25:10.973Z,48.00
2018-08-10T22:27:38.932Z,48.20
2018-08-10T22:30:06.878Z,48.20
2018-08-10T22:32:34.828Z,48.50
2018-08-10T22:35:03.098Z,48.40
2018-08-10T22:37:31.031Z,48.50
2018-08-10T22:39:58.963Z,48.50
2018-08-10T22:42:26.967Z,48.50
2018-08-10T22:44:54.914Z,48.50
2018-08-10T22:47:22.880Z,48.40
2018-08-10T22:49:50.908Z,48.50
2018-08-10T22:52:18.865Z,48.40
2018-08-10T22:54:46.847Z,48.50
2018-08-10T22:57:14.810Z,48.60
2018-08-10T22:59:42.822Z,48.50
2018-08-10T23:02:10.755Z,48.30
2018-08-10T23:04:38.753Z,48.40
2018-08-10T23:07:06.752Z,48.20
2018-08-10T23:09:34.708Z,48.10
2018-08-10T23:12:02.699Z,48.30
2018-08-10T23:14:30.700Z,48.30
2018-08-10T23:16:58.653Z,48.20
2018-08-10T23:19:26.608Z,48.10
2018-08-10T23:21:54.550Z,47.90
2018-08-10T23:24:22.529Z,47.90
2018-08-10T23:26:50.471Z,48.10
2018-08-10T23:29:18.461Z,48.20
2018-08-10T23:31:46.419Z,48.10
2018-08-10T23:34:14.371Z,48.10
2018-08-10T23:36:42.414Z,48.20
2018-08-10T23:39:12.030Z,48.30
2018-08-10T23:41:40.355Z,48.40
2018-08-10T23:44:08.446Z,48.50
2018-08-10T23:46:36.424Z,48.40
2018-08-10T23:49:04.600Z,48.50
2018-08-10T23:51:33.032Z,48.60
2018-08-10T23:54:01.378Z,48.40
2018-08-10T23:56:29.320Z,48.10
2018-08-10T23:58:57.508Z,47.90
